createdAt,value
2018-07-30T00:00:19.432Z,66.17
2018-07-30T00:01:19.460Z,66.27
2018-07-30T00:02:19.492Z,66.27
2018-07-30T00:03:19.521Z,65.98
2018-07-30T00:04:19.547Z,66.17
2018-07-30T00:05:19.632Z,66.66
2018-07-30T00:06:19.603Z,66.37
2018-07-30T00:07:19.635Z,66.75
2018-07-30T00:08:19.653Z,66.56
2018-07-30T00:09:19.687Z,66.85
2018-07-30T00:10:19.722Z,67.44
2018-07-30T00:11:19.739Z,67.24
2018-07-30T00:12:19.773Z,67.98
2018-07-30T00:13:19.801Z,67.63
2018-07-30T00:14:19.892Z,67.40
2018-07-30T00:15:19.858Z,67.21
2018-07-30T00:16:19.883Z,67.79
2018-07-30T00:17:19.917Z,68.08
2018-07-30T00:18:19.939Z,68.56
2018-07-30T00:19:19.967Z,68.89
2018-07-30T00:20:19.997Z,68.95
2018-07-30T00:21:20.046Z,69.15
2018-07-30T00:22:20.046Z,69.24
2018-07-30T00:23:20.073Z,69.05
2018-07-30T00:24:20.106Z,69.08
2018-07-30T00:25:20.135Z,68.95
2018-07-30T00:26:20.167Z,69.43
2018-07-30T00:27:20.185Z,70.01
2018-07-30T00:28:20.215Z,70.11
2018-07-30T00:29:20.244Z,69.43
2018-07-30T00:30:20.266Z,69.82
2018-07-30T00:31:20.325Z,69.82
2018-07-30T00:32:20.326Z,70.01
2018-07-30T00:33:20.353Z,70.01
2018-07-30T00:34:20.379Z,70.50
2018-07-30T00:35:20.409Z,70.31
2018-07-30T00:36:20.439Z,70.31
2018-07-30T00:37:20.469Z,70.21
2018-07-30T00:38:20.489Z,70.50
2018-07-30T00:39:20.521Z,71.08
2018-07-30T00:40:20.551Z,71.18
2018-07-30T00:41:20.575Z,70.89
2018-07-30T00:42:20.603Z,71.08
2018-07-30T00:43:20.636Z,70.79
2018-07-30T00:44:20.659Z,70.98
2018-07-30T00:45:20.689Z,71.47
2018-07-30T00:46:20.717Z,71.28
2018-07-30T00:47:20.741Z,71.37
2018-07-30T00:48:20.943Z,71.37
2018-07-30T00:49:20.799Z,71.86
2018-07-30T00:50:20.824Z,72.34
2018-07-30T00:51:20.855Z,72.15
2018-07-30T00:52:20.883Z,72.15
2018-07-30T00:53:20.911Z,72.24
2018-07-30T00:54:20.939Z,71.82
2018-07-30T00:55:20.965Z,72.30
2018-07-30T00:56:20.995Z,72.30
2018-07-30T00:57:21.024Z,72.40
2018-07-30T00:58:21.049Z,73.08
2018-07-30T00:59:21.075Z,72.79
2018-07-30T01:00:21.101Z,72.60
2018-07-30T01:01:21.132Z,72.89
2018-07-30T01:02:21.159Z,73.27
2018-07-30T01:03:21.181Z,73.27
2018-07-30T01:04:21.215Z,72.98
2018-07-30T01:05:21.241Z,73.18
2018-07-30T01:06:21.273Z,73.27
2018-07-30T01:07:21.299Z,73.27
2018-07-30T01:08:21.327Z,73.47
2018-07-30T01:09:21.353Z,73.57
2018-07-30T01:10:21.383Z,73.57
2018-07-30T01:11:21.412Z,74.05
2018-07-30T01:12:21.433Z,73.95
2018-07-30T01:13:21.463Z,74.53
2018-07-30T01:14:21.544Z,74.82
2018-07-30T01:15:21.517Z,74.43
2018-07-30T01:16:21.545Z,74.24
2018-07-30T01:17:21.573Z,74.05
2018-07-30T01:18:21.607Z,74.43
2018-07-30T01:19:21.625Z,74.24
2018-07-30T01:20:21.658Z,73.75
2018-07-30T01:21:21.685Z,73.75
2018-07-30T01:22:21.718Z,74.53
2018-07-30T01:23:21.737Z,73.95
2018-07-30T01:24:21.769Z,74.43
2018-07-30T01:25:21.795Z,74.34
2018-07-30T01:26:21.822Z,74.73
2018-07-30T01:27:21.844Z,74.63
2018-07-30T01:28:21.881Z,74.53
2018-07-30T01:29:21.903Z,74.24
2018-07-30T01:30:21.934Z,74.43
2018-07-30T01:31:21.959Z,74.63
2018-07-30T01:32:21.993Z,74.82
2018-07-30T01:33:22.019Z,74.98
2018-07-30T01:34:22.039Z,75.21
2018-07-30T01:35:22.071Z,74.82
2018-07-30T01:36:22.100Z,74.92
2018-07-30T01:37:22.126Z,75.46
2018-07-30T01:38:22.157Z,75.31
2018-07-30T01:39:22.193Z,75.31
2018-07-30T01:40:22.211Z,74.98
2018-07-30T01:41:22.237Z,75.40
2018-07-30T01:42:22.260Z,74.88
2018-07-30T01:43:22.291Z,74.49
2018-07-30T01:44:22.319Z,74.01
2018-07-30T01:45:22.347Z,74.59
2018-07-30T01:46:22.378Z,74.21
2018-07-30T01:47:22.403Z,74.21
2018-07-30T01:48:22.433Z,74.40
2018-07-30T01:49:22.461Z,74.01
2018-07-30T01:50:22.485Z,73.91
2018-07-30T01:51:22.519Z,74.15
2018-07-30T01:52:22.538Z,74.24
2018-07-30T01:53:22.566Z,74.21
2018-07-30T01:54:22.595Z,74.30
2018-07-30T01:55:22.626Z,74.40
2018-07-30T01:56:22.651Z,73.95
2018-07-30T01:57:22.675Z,74.21
2018-07-30T01:58:22.701Z,74.21
2018-07-30T01:59:22.732Z,74.21
2018-07-30T02:00:22.763Z,73.95
2018-07-30T02:01:22.787Z,74.24
2018-07-30T02:02:22.837Z,74.43
2018-07-30T02:03:22.841Z,74.40
2018-07-30T02:04:22.875Z,74.21
2018-07-30T02:05:22.898Z,74.11
2018-07-30T02:06:22.919Z,74.21
2018-07-30T02:07:22.957Z,74.21
2018-07-30T02:08:22.980Z,74.69
2018-07-30T02:09:23.007Z,74.98
2018-07-30T02:10:23.031Z,74.88
2018-07-30T02:11:23.063Z,74.79
2018-07-30T02:12:23.090Z,74.88
2018-07-30T02:13:23.113Z,74.88
2018-07-30T02:14:23.144Z,74.88
2018-07-30T02:15:23.172Z,74.98
2018-07-30T02:16:23.195Z,75.17
2018-07-30T02:17:23.227Z,75.07
2018-07-30T02:18:23.260Z,74.88
2018-07-30T02:19:23.283Z,75.37
2018-07-30T02:20:23.311Z,74.88
2018-07-30T02:21:23.356Z,75.07
2018-07-30T02:22:23.364Z,75.17
2018-07-30T02:23:23.391Z,75.17
2018-07-30T02:24:23.425Z,75.17
2018-07-30T02:25:23.451Z,75.37
2018-07-30T02:26:23.475Z,75.27
2018-07-30T02:27:23.501Z,75.37
2018-07-30T02:28:23.535Z,75.95
2018-07-30T02:29:23.557Z,75.27
2018-07-30T02:30:23.585Z,75.27
2018-07-30T02:31:23.609Z,75.27
2018-07-30T02:32:23.641Z,75.07
2018-07-30T02:33:23.665Z,74.98
2018-07-30T02:34:23.696Z,74.88
2018-07-30T02:35:23.723Z,74.98
2018-07-30T02:36:23.749Z,75.17
2018-07-30T02:37:23.777Z,75.37
2018-07-30T02:38:23.800Z,75.85
2018-07-30T02:39:23.838Z,75.65
2018-07-30T02:40:23.857Z,75.17
2018-07-30T02:41:23.885Z,75.17
2018-07-30T02:42:23.913Z,75.37
2018-07-30T02:43:23.941Z,75.37
2018-07-30T02:44:23.966Z,75.75
2018-07-30T02:45:23.997Z,75.85
2018-07-30T02:46:24.022Z,75.65
2018-07-30T02:47:24.053Z,75.46
2018-07-30T02:48:24.085Z,75.56
2018-07-30T02:49:24.108Z,75.65
2018-07-30T02:50:24.135Z,75.56
2018-07-30T02:51:24.163Z,75.65
2018-07-30T02:52:24.187Z,75.17
2018-07-30T02:53:24.222Z,75.95
2018-07-30T02:54:24.241Z,75.46
2018-07-30T02:55:24.271Z,75.27
2018-07-30T02:56:24.296Z,75.46
2018-07-30T02:57:24.323Z,75.65
2018-07-30T02:58:24.351Z,75.65
2018-07-30T02:59:24.384Z,75.17
2018-07-30T03:00:24.405Z,74.88
2018-07-30T03:01:24.437Z,75.27
2018-07-30T03:02:24.464Z,74.98
2018-07-30T03:03:24.486Z,75.46
2018-07-30T03:04:24.521Z,75.46
2018-07-30T03:05:24.537Z,75.37
2018-07-30T03:06:24.573Z,75.46
2018-07-30T03:07:24.603Z,75.46
2018-07-30T03:08:24.623Z,75.27
2018-07-30T03:09:24.714Z,74.98
2018-07-30T03:10:24.681Z,74.88
2018-07-30T03:11:24.705Z,75.37
2018-07-30T03:12:24.735Z,74.79
2018-07-30T03:13:24.757Z,75.07
2018-07-30T03:14:24.791Z,74.88
2018-07-30T03:15:24.815Z,75.17
2018-07-30T03:16:24.845Z,75.07
2018-07-30T03:17:24.871Z,75.65
2018-07-30T03:18:24.893Z,75.65
2018-07-30T03:19:24.925Z,75.56
2018-07-30T03:20:24.963Z,75.56
2018-07-30T03:21:24.982Z,75.71
2018-07-30T03:22:25.011Z,75.91
2018-07-30T03:23:25.037Z,76.10
2018-07-30T03:24:25.068Z,76.10
2018-07-30T03:25:25.092Z,76.59
2018-07-30T03:26:25.115Z,76.01
2018-07-30T03:27:25.147Z,76.10
2018-07-30T03:28:25.168Z,75.91
2018-07-30T03:29:25.211Z,75.85
2018-07-30T03:30:25.226Z,75.27
2018-07-30T03:31:25.258Z,75.56
2018-07-30T03:32:25.278Z,75.81
2018-07-30T03:33:25.306Z,75.37
2018-07-30T03:34:25.337Z,75.81
2018-07-30T03:35:25.365Z,75.85
2018-07-30T03:36:25.388Z,76.10
2018-07-30T03:37:25.423Z,76.04
2018-07-30T03:38:25.447Z,75.65
2018-07-30T03:39:25.471Z,75.85
2018-07-30T03:40:25.501Z,75.37
2018-07-30T03:41:25.529Z,76.14
2018-07-30T03:42:25.552Z,76.33
2018-07-30T03:43:25.583Z,76.82
2018-07-30T03:44:25.613Z,76.82
2018-07-30T03:45:25.636Z,76.43
2018-07-30T03:46:25.671Z,76.43
2018-07-30T03:47:25.690Z,77.11
2018-07-30T03:48:25.719Z,76.82
2018-07-30T03:49:25.748Z,76.53
2018-07-30T03:50:25.769Z,76.82
2018-07-30T03:51:25.800Z,76.62
2018-07-30T03:52:25.833Z,75.27
2018-07-30T03:53:25.858Z,75.07
2018-07-30T03:54:25.879Z,75.37
2018-07-30T03:55:25.911Z,75.75
2018-07-30T03:56:25.948Z,74.79
2018-07-30T03:57:25.983Z,74.79
2018-07-30T03:58:25.995Z,74.69
2018-07-30T03:59:26.020Z,75.40
2018-07-30T04:00:26.068Z,74.88
2018-07-30T04:01:26.075Z,75.17
2018-07-30T04:02:26.099Z,75.65
2018-07-30T04:03:26.131Z,76.14
2018-07-30T04:04:26.157Z,74.98
2018-07-30T04:05:26.183Z,74.88
2018-07-30T04:06:26.218Z,75.17
2018-07-30T04:07:26.239Z,75.50
2018-07-30T04:08:26.267Z,75.21
2018-07-30T04:09:26.293Z,75.02
2018-07-30T04:10:26.315Z,74.92
2018-07-30T04:11:26.355Z,74.53
2018-07-30T04:12:26.383Z,74.73
2018-07-30T04:13:26.401Z,74.79
2018-07-30T04:14:26.436Z,75.11
2018-07-30T04:15:26.452Z,74.63
2018-07-30T04:16:26.489Z,74.92
2018-07-30T04:17:26.511Z,75.50
2018-07-30T04:18:26.541Z,75.98
2018-07-30T04:19:26.569Z,75.70
2018-07-30T04:20:26.604Z,75.79
2018-07-30T04:21:26.622Z,75.02
2018-07-30T04:22:26.645Z,75.21
2018-07-30T04:23:26.680Z,74.79
2018-07-30T04:24:26.705Z,74.98
2018-07-30T04:25:26.732Z,75.02
2018-07-30T04:26:26.764Z,75.02
2018-07-30T04:27:26.787Z,74.34
2018-07-30T04:28:26.816Z,74.63
2018-07-30T04:29:26.843Z,74.53
2018-07-30T04:30:26.876Z,74.43
2018-07-30T04:31:26.897Z,74.53
2018-07-30T04:32:26.923Z,73.95
2018-07-30T04:33:26.952Z,74.43
2018-07-30T04:34:26.979Z,73.95
2018-07-30T04:35:27.009Z,73.95
2018-07-30T04:36:27.032Z,73.95
2018-07-30T04:37:27.063Z,73.95
2018-07-30T04:38:27.087Z,73.85
2018-07-30T04:39:27.116Z,73.66
2018-07-30T04:40:27.159Z,72.98
2018-07-30T04:41:27.171Z,72.98
2018-07-30T04:42:27.200Z,74.43
2018-07-30T04:43:27.227Z,74.34
2018-07-30T04:44:27.260Z,75.11
2018-07-30T04:45:27.281Z,73.75
2018-07-30T04:46:27.311Z,73.99
2018-07-30T04:47:27.336Z,73.31
2018-07-30T04:48:27.365Z,73.11
2018-07-30T04:49:27.393Z,73.11
2018-07-30T04:50:27.423Z,73.50
2018-07-30T04:51:27.449Z,73.60
2018-07-30T04:52:27.478Z,72.53
2018-07-30T04:53:27.498Z,71.95
2018-07-30T04:54:27.531Z,71.47
2018-07-30T04:55:27.561Z,71.47
2018-07-30T04:56:27.586Z,71.37
2018-07-30T04:57:27.617Z,71.56
2018-07-30T04:58:27.639Z,71.37
2018-07-30T04:59:27.671Z,71.37
2018-07-30T05:00:27.705Z,71.37
2018-07-30T05:01:27.732Z,70.98
2018-07-30T05:02:27.753Z,71.37
2018-07-30T05:03:27.781Z,71.08
2018-07-30T05:04:27.807Z,71.37
2018-07-30T05:05:27.846Z,71.28
2018-07-30T05:06:27.867Z,71.18
2018-07-30T05:07:27.892Z,70.79
2018-07-30T05:08:27.919Z,70.60
2018-07-30T05:09:27.948Z,70.79
2018-07-30T05:10:27.982Z,70.98
2018-07-30T05:11:27.997Z,71.08
2018-07-30T05:12:28.030Z,70.89
2018-07-30T05:13:28.059Z,71.28
2018-07-30T05:14:28.086Z,70.79
2018-07-30T05:15:28.112Z,70.98
2018-07-30T05:16:28.141Z,70.79
2018-07-30T05:17:28.171Z,70.50
2018-07-30T05:18:28.199Z,69.92
2018-07-30T05:19:28.339Z,70.50
2018-07-30T05:20:28.252Z,70.98
2018-07-30T05:21:28.279Z,70.70
2018-07-30T05:22:28.315Z,72.05
2018-07-30T05:23:28.347Z,72.34
2018-07-30T05:24:28.381Z,73.31
2018-07-30T05:25:28.445Z,74.08
2018-07-30T05:26:28.423Z,73.50
2018-07-30T05:27:28.494Z,72.73
2018-07-30T05:28:28.479Z,72.34
2018-07-30T05:29:28.508Z,72.15
2018-07-30T05:30:28.529Z,73.02
2018-07-30T05:31:28.575Z,72.44
2018-07-30T05:32:28.592Z,72.34
2018-07-30T05:33:28.613Z,72.92
2018-07-30T05:34:28.645Z,71.95
2018-07-30T05:35:28.673Z,72.05
2018-07-30T05:36:28.702Z,71.99
2018-07-30T05:37:28.727Z,71.86
2018-07-30T05:38:28.757Z,71.89
2018-07-30T05:39:28.779Z,72.18
2018-07-30T05:40:28.809Z,71.12
2018-07-30T05:41:28.844Z,71.89
2018-07-30T05:42:28.870Z,71.41
2018-07-30T05:43:28.893Z,71.70
2018-07-30T05:44:28.929Z,72.57
2018-07-30T05:45:28.953Z,71.50
2018-07-30T05:46:28.979Z,71.02
2018-07-30T05:47:29.010Z,70.44
2018-07-30T05:48:29.035Z,71.12
2018-07-30T05:49:29.069Z,70.44
2018-07-30T05:50:29.093Z,70.92
2018-07-30T05:51:29.120Z,70.63
2018-07-30T05:52:29.145Z,70.63
2018-07-30T05:53:29.178Z,70.44
2018-07-30T05:54:29.205Z,70.54
2018-07-30T05:55:29.229Z,70.63
2018-07-30T05:56:29.261Z,70.25
2018-07-30T05:57:29.283Z,70.44
2018-07-30T05:58:29.317Z,70.44
2018-07-30T05:59:29.372Z,70.34
2018-07-30T06:00:29.375Z,70.44
2018-07-30T06:01:29.399Z,70.28
2018-07-30T06:02:29.429Z,70.76
2018-07-30T06:03:29.455Z,70.37
2018-07-30T06:04:29.484Z,69.89
2018-07-30T06:05:29.561Z,70.67
2018-07-30T06:06:29.545Z,70.76
2018-07-30T06:07:29.569Z,71.06
2018-07-30T06:08:29.595Z,70.57
2018-07-30T06:09:29.658Z,70.86
2018-07-30T06:10:29.657Z,70.37
2018-07-30T06:11:29.687Z,70.76
2018-07-30T06:12:29.709Z,70.09
2018-07-30T06:13:29.739Z,70.18
2018-07-30T06:14:29.766Z,70.37
2018-07-30T06:15:29.795Z,70.37
2018-07-30T06:16:29.823Z,70.57
2018-07-30T06:17:29.856Z,69.79
2018-07-30T06:18:29.884Z,69.89
2018-07-30T06:19:29.917Z,69.73
2018-07-30T06:20:29.935Z,69.93
2018-07-30T06:21:29.966Z,70.03
2018-07-30T06:22:29.994Z,68.66
2018-07-30T06:23:30.025Z,69.24
2018-07-30T06:24:30.047Z,69.24
2018-07-30T06:25:30.086Z,68.96
2018-07-30T06:26:30.196Z,68.66
2018-07-30T06:27:30.206Z,67.99
2018-07-30T06:28:30.165Z,66.92
2018-07-30T06:29:30.212Z,68.08
2018-07-30T06:30:30.233Z,68.92
2018-07-30T06:31:30.248Z,69.21
2018-07-30T06:32:30.277Z,68.44
2018-07-30T06:33:30.304Z,68.24
2018-07-30T06:34:30.329Z,68.92
2018-07-30T06:35:30.364Z,69.41
2018-07-30T06:36:30.387Z,69.50
2018-07-30T06:37:30.417Z,69.02
2018-07-30T06:38:30.480Z,69.21
2018-07-30T06:39:30.476Z,69.79
2018-07-30T06:40:30.505Z,70.37
2018-07-30T06:41:30.535Z,71.06
2018-07-30T06:42:30.557Z,69.60
2018-07-30T06:43:30.583Z,69.79
2018-07-30T06:44:30.612Z,69.41
2018-07-30T06:45:30.643Z,69.89
2018-07-30T06:46:30.674Z,69.70
2018-07-30T06:47:30.699Z,70.09
2018-07-30T06:48:30.727Z,70.57
2018-07-30T06:49:30.782Z,69.99
2018-07-30T06:50:30.782Z,70.86
2018-07-30T06:51:30.811Z,69.89
2018-07-30T06:52:30.842Z,70.18
2018-07-30T06:53:30.868Z,70.37
2018-07-30T06:54:30.902Z,71.06
2018-07-30T06:55:30.926Z,71.44
2018-07-30T06:56:30.953Z,71.06
2018-07-30T06:57:30.983Z,70.76
2018-07-30T06:58:31.008Z,70.18
2018-07-30T06:59:31.039Z,70.67
2018-07-30T07:00:31.071Z,70.18
2018-07-30T07:01:31.103Z,68.63
2018-07-30T07:02:31.122Z,69.31
2018-07-30T07:03:31.159Z,70.37
2018-07-30T07:04:31.185Z,70.28
2018-07-30T07:05:31.236Z,70.67
2018-07-30T07:06:31.233Z,70.37
2018-07-30T07:07:31.264Z,69.89
2018-07-30T07:08:31.293Z,71.83
2018-07-30T07:09:31.323Z,71.83
2018-07-30T07:10:31.359Z,70.47
2018-07-30T07:11:31.387Z,69.31
2018-07-30T07:12:31.403Z,69.54
2018-07-30T07:13:31.436Z,68.96
2018-07-30T07:14:31.462Z,69.15
2018-07-30T07:15:31.496Z,69.15
2018-07-30T07:16:31.592Z,67.99
2018-07-30T07:17:31.549Z,66.95
2018-07-30T07:18:31.578Z,66.76
2018-07-30T07:19:31.607Z,65.95
2018-07-30T07:20:31.632Z,66.27
2018-07-30T07:21:31.689Z,66.95
2018-07-30T07:22:31.687Z,66.56
2018-07-30T07:23:31.721Z,65.98
2018-07-30T07:24:31.754Z,64.75
2018-07-30T07:25:31.778Z,64.36
2018-07-30T07:26:31.813Z,63.20
2018-07-30T07:27:31.838Z,63.29
2018-07-30T07:28:31.860Z,62.23
2018-07-30T07:29:31.883Z,62.04
2018-07-30T07:30:31.916Z,62.62
2018-07-30T07:31:31.993Z,61.74
2018-07-30T07:32:31.975Z,61.35
2018-07-30T07:33:32.005Z,61.87
2018-07-30T07:34:32.039Z,62.13
2018-07-30T07:35:32.061Z,61.35
2018-07-30T07:36:32.096Z,63.59
2018-07-30T07:37:32.117Z,63.10
2018-07-30T07:38:32.145Z,62.23
2018-07-30T07:39:32.169Z,61.38
2018-07-30T07:40:32.209Z,61.25
2018-07-30T07:41:32.245Z,61.19
2018-07-30T07:42:32.267Z,61.48
2018-07-30T07:43:32.292Z,61.77
2018-07-30T07:44:32.320Z,58.54
2018-07-30T07:45:32.345Z,57.50
2018-07-30T07:46:32.377Z,57.96
2018-07-30T07:47:32.416Z,58.37
2018-07-30T07:48:32.432Z,59.54
2018-07-30T07:49:32.472Z,59.44
2018-07-30T07:50:32.571Z,57.69
2018-07-30T07:51:32.538Z,58.37
2018-07-30T07:52:32.547Z,57.60
2018-07-30T07:53:32.582Z,56.14
2018-07-30T07:54:32.614Z,56.04
2018-07-30T07:55:32.628Z,55.55
2018-07-30T07:56:32.663Z,56.11
2018-07-30T07:57:32.686Z,56.30
2018-07-30T07:58:32.721Z,56.21
2018-07-30T07:59:32.745Z,55.94
2018-07-30T08:00:32.786Z,56.24
2018-07-30T08:01:32.830Z,56.34
2018-07-30T08:02:32.835Z,55.75
2018-07-30T08:03:32.864Z,55.94
2018-07-30T08:04:32.895Z,55.94
2018-07-30T08:05:32.930Z,55.17
2018-07-30T08:06:32.955Z,55.49
2018-07-30T08:07:32.983Z,54.90
2018-07-30T08:08:33.010Z,54.22
2018-07-30T08:09:33.041Z,53.67
2018-07-30T08:10:33.066Z,53.47
2018-07-30T08:11:33.097Z,52.69
2018-07-30T08:12:33.126Z,52.59
2018-07-30T08:13:33.157Z,53.47
2018-07-30T08:14:33.179Z,52.89
2018-07-30T08:15:33.210Z,52.50
2018-07-30T08:16:33.245Z,52.98
2018-07-30T08:17:33.275Z,52.69
2018-07-30T08:18:33.298Z,52.50
2018-07-30T08:19:33.325Z,52.40
2018-07-30T08:20:33.357Z,53.18
2018-07-30T08:21:33.387Z,53.25
2018-07-30T08:22:33.417Z,52.96
2018-07-30T08:23:33.447Z,53.54
2018-07-30T08:24:33.474Z,53.74
2018-07-30T08:25:33.505Z,54.52
2018-07-30T08:26:33.534Z,53.35
2018-07-30T08:27:33.560Z,54.32
2018-07-30T08:28:33.587Z,53.67
2018-07-30T08:29:33.616Z,53.08
2018-07-30T08:30:33.656Z,53.57
2018-07-30T08:31:33.672Z,53.38
2018-07-30T08:32:33.704Z,53.57
2018-07-30T08:33:33.738Z,53.47
2018-07-30T08:34:33.760Z,53.40
2018-07-30T08:35:33.792Z,53.59
2018-07-30T08:36:33.823Z,53.59
2018-07-30T08:37:33.856Z,53.89
2018-07-30T08:38:33.884Z,52.04
2018-07-30T08:39:33.913Z,52.14
2018-07-30T08:40:33.940Z,52.92
2018-07-30T08:41:33.970Z,53.04
2018-07-30T08:42:34.002Z,52.36
2018-07-30T08:43:34.031Z,52.65
2018-07-30T08:44:34.060Z,52.65
2018-07-30T08:45:34.088Z,51.87
2018-07-30T08:46:34.143Z,51.87
2018-07-30T08:47:34.145Z,51.90
2018-07-30T08:48:34.173Z,50.92
2018-07-30T08:49:34.208Z,51.12
2018-07-30T08:50:34.243Z,48.88
2018-07-30T08:51:34.261Z,48.88
2018-07-30T08:52:34.297Z,48.80
2018-07-30T08:53:34.323Z,48.51
2018-07-30T08:54:34.355Z,48.63
2018-07-30T08:55:34.386Z,48.24
2018-07-30T08:56:34.421Z,48.83
2018-07-30T08:57:34.446Z,49.22
2018-07-30T08:58:34.471Z,48.73
2018-07-30T08:59:34.505Z,49.15
2018-07-30T09:00:34.532Z,50.31
2018-07-30T09:01:34.563Z,50.21
2018-07-30T09:02:34.596Z,49.15
2018-07-30T09:03:34.682Z,49.24
2018-07-30T09:04:34.654Z,49.34
2018-07-30T09:05:34.686Z,48.49
2018-07-30T09:06:34.710Z,48.68
2018-07-30T09:07:34.742Z,47.71
2018-07-30T09:08:34.772Z,48.49
2018-07-30T09:09:34.804Z,49.66
2018-07-30T09:11:34.867Z,49.68
2018-07-30T09:12:35.040Z,49.29
2018-07-30T09:13:34.934Z,49.41
2018-07-30T09:14:34.956Z,48.83
2018-07-30T09:15:34.989Z,48.34
2018-07-30T09:16:35.022Z,48.05
2018-07-30T09:17:35.048Z,47.56
2018-07-30T09:18:35.082Z,46.97
2018-07-30T09:19:35.111Z,47.09
2018-07-30T09:20:35.137Z,46.50
2018-07-30T09:21:35.172Z,46.01
2018-07-30T09:22:35.207Z,46.31
2018-07-30T09:23:35.232Z,45.92
2018-07-30T09:24:35.269Z,46.21
2018-07-30T09:25:35.291Z,46.21
2018-07-30T09:26:35.331Z,46.31
2018-07-30T09:27:35.362Z,45.82
2018-07-30T09:28:35.385Z,45.80
2018-07-30T09:29:35.423Z,45.41
2018-07-30T09:30:35.450Z,46.29
2018-07-30T09:31:35.486Z,46.58
2018-07-30T09:32:35.576Z,46.78
2018-07-30T09:33:35.542Z,46.48
2018-07-30T09:34:35.575Z,45.51
2018-07-30T09:35:35.603Z,46.48
2018-07-30T09:36:35.630Z,47.28
2018-07-30T09:37:35.665Z,46.48
2018-07-30T09:38:35.709Z,46.50
2018-07-30T09:39:35.767Z,45.62
2018-07-30T09:40:35.794Z,45.82
2018-07-30T09:41:35.801Z,46.60
2018-07-30T09:42:35.825Z,46.39
2018-07-30T09:43:35.854Z,46.48
2018-07-30T09:44:35.945Z,46.68
2018-07-30T09:45:35.917Z,46.88
2018-07-30T09:46:35.943Z,46.41
2018-07-30T09:47:35.978Z,45.55
2018-07-30T09:48:36.009Z,44.96
2018-07-30T09:49:36.047Z,46.23
2018-07-30T09:50:36.088Z,46.43
2018-07-30T09:51:36.101Z,45.65
2018-07-30T09:52:36.136Z,45.37
2018-07-30T09:53:36.168Z,45.75
2018-07-30T09:54:36.196Z,47.14
2018-07-30T09:55:36.228Z,45.67
2018-07-30T09:56:36.264Z,45.76
2018-07-30T09:57:36.294Z,44.42
2018-07-30T09:58:36.328Z,44.32
2018-07-30T09:59:36.359Z,44.52
2018-07-30T10:00:36.389Z,44.40
2018-07-30T10:01:36.418Z,44.10
2018-07-30T10:02:36.454Z,43.71
2018-07-30T10:03:36.483Z,44.49
2018-07-30T10:04:36.513Z,45.08
2018-07-30T10:05:36.564Z,45.47
2018-07-30T10:06:36.574Z,44.49
2018-07-30T10:07:36.606Z,45.18
2018-07-30T10:08:36.644Z,44.96
2018-07-30T10:09:36.672Z,45.47
2018-07-30T10:10:36.709Z,45.76
2018-07-30T10:11:36.773Z,46.65
2018-07-30T10:12:37.783Z,47.72
2018-07-30T10:13:36.794Z,47.53
2018-07-30T10:14:36.826Z,46.67
2018-07-30T10:15:36.857Z,45.20
2018-07-30T10:16:36.890Z,43.23
2018-07-30T10:17:36.973Z,44.89
2018-07-30T10:18:36.956Z,44.79
2018-07-30T10:19:36.993Z,44.89
2018-07-30T10:20:37.024Z,43.54
2018-07-30T10:21:37.060Z,43.44
2018-07-30T10:22:37.082Z,43.34
2018-07-30T10:23:37.143Z,42.48
2018-07-30T10:24:37.150Z,42.48
2018-07-30T10:25:37.184Z,42.29
2018-07-30T10:26:37.218Z,41.33
2018-07-30T10:27:37.246Z,42.02
2018-07-30T10:28:37.276Z,42.33
2018-07-30T10:29:37.315Z,40.98
2018-07-30T10:30:37.395Z,41.47
2018-07-30T10:31:37.372Z,40.80
2018-07-30T10:32:37.404Z,40.01
2018-07-30T10:33:37.439Z,40.58
2018-07-30T10:34:37.567Z,39.43
2018-07-30T10:36:37.538Z,39.43
2018-07-30T10:37:37.576Z,39.64
2018-07-30T10:38:37.610Z,39.45
2018-07-30T10:39:37.632Z,39.54
2018-07-30T10:40:37.664Z,39.54
2018-07-30T10:41:37.703Z,39.15
2018-07-30T10:42:37.736Z,39.06
2018-07-30T10:43:37.769Z,39.84
2018-07-30T10:44:37.827Z,39.53
2018-07-30T10:45:37.835Z,40.80
2018-07-30T10:46:37.860Z,39.80
2018-07-30T10:47:37.895Z,39.11
2018-07-30T10:48:37.929Z,39.01
2018-07-30T10:49:37.968Z,39.41
2018-07-30T10:50:37.996Z,39.90
2018-07-30T10:51:38.023Z,39.41
2018-07-30T10:52:38.059Z,38.92
2018-07-30T10:53:38.102Z,39.51
2018-07-30T10:54:38.130Z,39.01
2018-07-30T10:55:38.194Z,39.43
2018-07-30T10:56:38.196Z,39.03
2018-07-30T10:57:38.225Z,37.66
2018-07-30T10:58:38.258Z,38.64
2018-07-30T10:59:38.299Z,39.53
2018-07-30T11:00:38.330Z,40.09
2018-07-30T11:01:38.358Z,39.43
2018-07-30T11:02:38.401Z,39.33
2018-07-30T11:03:38.422Z,38.74
2018-07-30T11:04:38.456Z,38.62
2018-07-30T11:05:38.492Z,38.84
2018-07-30T11:06:38.526Z,38.13
2018-07-30T11:07:38.606Z,38.33
2018-07-30T11:08:38.593Z,38.43
2018-07-30T11:09:38.668Z,38.04
2018-07-30T11:10:38.659Z,37.94
2018-07-30T11:11:38.689Z,37.86
2018-07-30T11:12:38.723Z,37.29
2018-07-30T11:13:38.756Z,36.54
2018-07-30T11:14:38.800Z,36.55
2018-07-30T11:15:38.821Z,35.95
2018-07-30T11:16:38.862Z,36.62
2018-07-30T11:17:38.892Z,36.83
2018-07-30T11:18:38.952Z,37.30
2018-07-30T11:19:38.957Z,37.11
2018-07-30T11:20:38.998Z,37.01
2018-07-30T11:21:39.046Z,37.11
2018-07-30T11:22:39.056Z,37.48
2018-07-30T11:23:39.099Z,37.30
2018-07-30T11:24:39.125Z,36.72
2018-07-30T11:25:39.165Z,36.34
2018-07-30T11:26:39.193Z,37.23
2018-07-30T11:27:39.228Z,36.83
2018-07-30T11:28:39.264Z,36.93
2018-07-30T11:29:39.297Z,36.55
2018-07-30T11:30:39.329Z,35.95
2018-07-30T11:31:39.373Z,36.15
2018-07-30T11:32:39.398Z,35.97
2018-07-30T11:33:39.465Z,35.02
2018-07-30T11:34:39.460Z,34.82
2018-07-30T11:35:39.499Z,34.34
2018-07-30T11:36:39.536Z,33.77
2018-07-30T11:37:39.568Z,34.64
2018-07-30T11:38:39.599Z,34.84
2018-07-30T11:39:39.647Z,34.84
2018-07-30T11:40:39.672Z,36.41
2018-07-30T11:41:39.701Z,34.54
2018-07-30T11:42:39.746Z,34.74
2018-07-30T11:43:39.856Z,33.95
2018-07-30T11:44:39.813Z,34.05
2018-07-30T11:45:39.843Z,33.87
2018-07-30T11:46:41.293Z,33.56
2018-07-30T11:47:39.910Z,33.75
2018-07-30T11:48:39.951Z,33.28
2018-07-30T11:49:39.983Z,33.48
2018-07-30T11:50:40.022Z,32.51
2018-07-30T11:51:40.059Z,32.10
2018-07-30T11:52:40.082Z,32.49
2018-07-30T11:53:40.127Z,32.90
2018-07-30T11:54:40.155Z,31.95
2018-07-30T11:55:40.191Z,30.40
2018-07-30T11:56:40.225Z,29.93
2018-07-30T11:57:40.260Z,27.83
2018-07-30T11:58:40.291Z,26.69
2018-07-30T11:59:40.326Z,24.37
2018-07-30T12:00:40.365Z,23.30
2018-07-30T12:01:40.832Z,23.39
2018-07-30T12:02:40.436Z,22.55
2018-07-30T12:03:40.483Z,22.03
2018-07-30T12:04:40.512Z,22.52
2018-07-30T12:05:40.545Z,22.71
2018-07-30T12:06:40.583Z,22.03
2018-07-30T12:07:40.624Z,21.83
2018-07-30T12:08:40.689Z,21.08
2018-07-30T12:09:40.705Z,19.90
2018-07-30T12:10:41.340Z,19.79
2018-07-30T12:11:40.776Z,18.93
2018-07-30T12:12:40.821Z,19.43
2018-07-30T12:13:40.866Z,19.42
2018-07-30T12:14:40.892Z,20.97
2018-07-30T12:15:40.928Z,21.71
2018-07-30T12:16:40.979Z,22.55
2018-07-30T12:17:41.013Z,23.00
2018-07-30T12:18:41.062Z,22.01
2018-07-30T12:19:41.094Z,21.85
2018-07-30T12:20:41.131Z,20.40
2018-07-30T12:21:41.217Z,19.12
2018-07-30T12:22:41.208Z,19.01
2018-07-30T12:23:41.252Z,19.98
2018-07-30T12:24:41.295Z,21.04
2018-07-30T12:25:41.331Z,22.56
2018-07-30T12:26:41.377Z,23.25
2018-07-30T12:27:41.418Z,24.13
2018-07-30T12:28:41.461Z,24.23
2018-07-30T12:29:41.496Z,23.93
2018-07-30T12:30:41.611Z,22.51
2018-07-30T12:31:41.568Z,22.22
2018-07-30T12:32:41.613Z,21.92
2018-07-30T12:33:41.647Z,22.06
2018-07-30T12:34:41.692Z,19.72
2018-07-30T12:35:41.733Z,18.95
2018-07-30T12:36:41.775Z,18.12
2018-07-30T12:37:41.809Z,17.05
2018-07-30T12:38:41.850Z,18.14
2018-07-30T12:39:41.893Z,16.45
2018-07-30T12:40:41.943Z,16.82
2018-07-30T12:41:41.976Z,17.74
2018-07-30T12:42:42.017Z,18.04
2018-07-30T12:43:42.053Z,17.85
2018-07-30T12:44:42.094Z,17.57
2018-07-30T12:45:42.141Z,16.87
2018-07-30T12:46:42.197Z,16.47
2018-07-30T12:47:42.224Z,15.78
2018-07-30T12:48:42.281Z,15.30
2018-07-30T12:49:42.313Z,15.71
2018-07-30T12:50:42.359Z,15.69
2018-07-30T12:51:42.397Z,15.70
2018-07-30T12:52:42.455Z,14.50
2018-07-30T12:53:42.491Z,14.59
2018-07-30T12:54:42.555Z,15.00